Meteo Giornale » Osservazioni meteo Stati Uniti (USA) » New York City Central Park

ore: 23:51 - Osservazioni Meteo New York City Central Park
Lat. 40° 47' N Lon. 73° 58' W Alt. 47 metri s.l.m.

molto_nuvoloso America/New_York

1 °C

Molto Nuvoloso

Temp. 24 Ore

-4 °C

2 °C

Ovest/Nord-Ovest

13 Km/h

Dew point -12 °C

Umidità 37 %

Visibilità  10 Km

Il sole sorge alle ore 06:21

Il sole tramonta alle ore 17:53

Data e Ora Cielo e Fenomeni T °C DP °C Um. % Pres. hPa Vis. km Vento km/h
Ieri h: 23:51 molto_nuvoloso Molto Nuvoloso 1 -12 37 1014 10 O/NO 13
Ieri h: 22:51 molto_nuvoloso Molto Nuvoloso 1 -14 31 1014 10 O 9.3
Ieri h: 21:51 sereno Sereno 1 -15 29 1014 10 O/NO 18.5
Ieri h: 20:51 sereno Sereno 1 -16 26 1013 10 O 13
Ieri h: 19:51 sereno Sereno 2 -17 22 1012 10 O/NO 13
Ieri h: 18:51 sereno Sereno 2 -17 22 1012 10 O 20.3
Ieri h: 17:51 sereno Sereno 2 -18 20 1011 10 O 20.3
Ieri h: 15:51 sereno Sereno 2 -21 16 1010 10 O/NO 18.5
Ieri h: 14:51 sereno Sereno 2 -20 17 1011 10 O/NO 24
Ieri h: 13:51 sereno Sereno 2 -19 19 1011 10 O 29.6
Ieri h: 12:51 sereno Sereno 2 -18 20 1011 10 O 20.3
Ieri h: 11:51 sereno Sereno 1 -19 20 1012 10 O/NO 29.6
Ieri h: 10:51 sereno Sereno -1 -19 23 1012 10 O/NO 24
Ieri h: 09:51 sereno Sereno -2 -18 28 1013 10 O/NO 16.7
Ieri h: 08:51 sereno Sereno -4 -18 32 1013 10 O 16.7
Ieri h: 07:51 sereno Sereno -4 -17 35 1014 10 NO 16.7
Ieri h: 05:51 sereno Sereno -4 -16 38 1013 10 NO 18.5
Ieri h: 04:51 sereno Sereno -4 -16 38 1012 10 NO 20.3
Ieri h: 03:51 sereno Sereno -4 -14 45 1011 10 N 0
Ieri h: 02:51 sereno Sereno -3 -14 42 1011 10 O/NO 18.5
Ieri h: 01:51 sereno Sereno -3 -13 45 1012 10 N 9.3
Ieri h: 00:51 sereno Sereno -3 -13 45 1011 10 O/NO 22.2
Ieri h: 23:51 sereno Sereno -3 -14 42 1011 10 NO 25.9